createdAt,value
2022-12-03T00:00:54.837Z,-11.03
2022-12-03T00:05:56.890Z,-11.04
2022-12-03T00:10:58.878Z,-11.05
2022-12-03T00:16:01.046Z,-11.08
2022-12-03T00:21:03.130Z,-11.12
2022-12-03T00:26:05.242Z,-11.14
2022-12-03T00:31:07.329Z,-11.16
2022-12-03T00:36:09.541Z,-11.35
2022-12-03T00:41:12.057Z,-11.16
2022-12-03T00:46:18.253Z,-11.12
2022-12-03T00:51:23.003Z,-11.12
2022-12-03T00:56:25.171Z,-11.24
2022-12-03T01:01:27.263Z,-11.18
2022-12-03T01:06:29.282Z,-11.23
2022-12-03T01:11:41.471Z,-11.21
2022-12-03T01:16:44.752Z,-11.28
2022-12-03T01:21:49.808Z,-11.30
2022-12-03T01:26:51.866Z,-11.40
2022-12-03T01:32:12.573Z,-11.46
2022-12-03T01:37:14.578Z,-11.34
2022-12-03T01:42:29.096Z,-11.43
2022-12-03T01:47:36.804Z,-11.51
2022-12-03T01:52:39.591Z,-11.57
2022-12-03T01:57:47.834Z,-11.60
2022-12-03T02:02:53.602Z,-11.64
2022-12-03T02:07:56.496Z,-11.68
2022-12-03T02:13:03.148Z,-11.66
2022-12-03T02:18:05.538Z,-11.69
2022-12-03T02:23:43.356Z,-11.64
2022-12-03T02:28:45.351Z,-11.66
2022-12-03T02:33:47.358Z,-11.64
2022-12-03T02:38:50.831Z,-11.71
2022-12-03T02:43:52.834Z,-11.90
2022-12-03T02:48:54.927Z,-11.70
2022-12-03T02:53:57.523Z,-11.67
2022-12-03T02:59:03.320Z,-11.65
2022-12-03T03:04:06.607Z,-11.66
2022-12-03T03:09:08.608Z,-11.72
2022-12-03T03:14:10.633Z,-11.72
2022-12-03T03:19:12.687Z,-11.76
2022-12-03T03:24:14.667Z,-11.76
2022-12-03T03:29:17.365Z,-11.80
2022-12-03T03:34:20.645Z,-11.86
2022-12-03T03:39:22.689Z,-11.81
2022-12-03T03:44:24.817Z,-11.86
2022-12-03T03:49:27.631Z,-11.89
2022-12-03T03:54:29.852Z,-11.87
2022-12-03T03:59:32.302Z,-11.91
2022-12-03T04:04:37.755Z,-11.90
2022-12-03T04:09:39.865Z,-11.91
2022-12-03T04:14:41.819Z,-11.93
2022-12-03T04:19:43.778Z,-11.96
2022-12-03T04:24:45.810Z,-11.98
2022-12-03T04:29:47.842Z,-11.99
2022-12-03T04:35:19.131Z,-11.98
2022-12-03T04:40:39.965Z,-12.14
2022-12-03T04:45:41.990Z,-12.18
2022-12-03T04:50:44.112Z,-12.20
2022-12-03T04:55:46.219Z,-12.32
2022-12-03T05:00:48.301Z,-12.20
2022-12-03T05:05:50.326Z,-12.22
2022-12-03T05:10:52.392Z,-12.26
2022-12-03T05:15:54.419Z,-12.25
2022-12-03T05:20:56.477Z,-12.27
2022-12-03T05:25:58.496Z,-12.14
2022-12-03T05:31:00.499Z,-12.13
2022-12-03T05:36:02.626Z,-12.11
2022-12-03T05:41:25.132Z,-12.19
2022-12-03T05:46:27.291Z,-12.11
2022-12-03T05:51:30.250Z,-12.07
2022-12-03T05:56:32.392Z,-12.00
2022-12-03T06:01:34.651Z,-12.07
2022-12-03T06:06:36.621Z,-11.80
2022-12-03T06:11:40.068Z,-11.63
2022-12-03T06:16:42.073Z,-11.39
2022-12-03T06:21:44.282Z,-11.27
2022-12-03T06:26:46.340Z,-11.10
2022-12-03T06:31:49.330Z,-11.18
2022-12-03T06:36:51.367Z,-10.93
2022-12-03T06:41:53.475Z,-10.74
2022-12-03T06:46:55.555Z,-10.57
2022-12-03T06:51:57.551Z,-10.38
2022-12-03T06:57:00.366Z,-10.31
2022-12-03T07:02:02.408Z,-10.17
2022-12-03T07:07:04.484Z,-9.98
2022-12-03T07:12:07.656Z,-9.81
2022-12-03T07:17:09.784Z,-9.58
2022-12-03T07:22:12.188Z,-9.59
2022-12-03T07:27:14.146Z,-9.30
2022-12-03T07:32:16.194Z,-8.99
2022-12-03T07:37:22.854Z,-8.58
2022-12-03T07:42:25.568Z,-8.05
2022-12-03T07:47:27.689Z,-7.50
2022-12-03T07:52:30.132Z,-6.82
2022-12-03T07:57:32.635Z,-5.81
2022-12-03T08:02:34.729Z,-5.08
2022-12-03T08:07:37.064Z,-4.94
2022-12-03T08:12:45.803Z,-4.69
2022-12-03T08:17:54.878Z,-4.08
2022-12-03T08:22:57.612Z,-3.64
2022-12-03T08:28:26.703Z,-3.21
2022-12-03T08:33:39.090Z,-2.73
2022-12-03T08:38:45.534Z,-2.16
2022-12-03T08:43:47.797Z,-2.15
2022-12-03T08:48:49.859Z,-3.10
2022-12-03T08:54:03.507Z,-4.19
2022-12-03T08:59:24.184Z,-4.89
2022-12-03T09:04:36.180Z,-5.39
2022-12-03T09:09:38.387Z,-5.95
2022-12-03T09:14:40.352Z,-6.22
2022-12-03T09:19:46.287Z,-6.42
2022-12-03T09:24:48.607Z,-6.58
2022-12-03T09:29:50.976Z,-6.44
2022-12-03T09:34:55.197Z,-6.43
2022-12-03T09:39:57.455Z,-6.23
2022-12-03T09:44:59.776Z,-6.20
2022-12-03T09:50:02.272Z,-6.11
2022-12-03T09:55:13.593Z,-6.10
2022-12-03T10:00:21.899Z,-5.94
2022-12-03T10:05:24.340Z,-5.98
2022-12-03T10:10:26.505Z,-6.01
2022-12-03T10:15:33.195Z,-5.68
2022-12-03T10:20:35.344Z,-5.80
2022-12-03T10:25:51.566Z,-5.70
2022-12-03T10:30:57.324Z,-5.65
2022-12-03T10:36:21.720Z,-5.48
2022-12-03T10:41:29.316Z,-5.68
2022-12-03T10:46:31.384Z,-5.78
2022-12-03T10:51:33.582Z,-5.95
2022-12-03T10:56:36.153Z,-5.93
2022-12-03T11:01:38.244Z,-6.07
2022-12-03T11:06:40.353Z,-6.08
2022-12-03T11:11:42.386Z,-5.98
2022-12-03T11:16:47.121Z,-5.85
2022-12-03T11:22:07.147Z,-5.82
2022-12-03T11:27:09.142Z,-5.82
2022-12-03T11:32:11.181Z,-5.79
2022-12-03T11:37:21.752Z,-5.95
2022-12-03T11:42:26.198Z,-6.01
2022-12-03T11:47:29.173Z,-6.03
2022-12-03T11:52:40.339Z,-6.01
2022-12-03T11:57:43.493Z,-6.07
2022-12-03T12:02:46.358Z,-6.09
2022-12-03T12:07:49.489Z,-6.12
2022-12-03T12:12:55.074Z,-6.29
2022-12-03T12:17:57.460Z,-6.17
2022-12-03T12:23:28.144Z,-6.10
2022-12-03T12:28:30.124Z,-6.14
2022-12-03T12:33:34.627Z,-6.18
2022-12-03T12:38:36.719Z,-6.18
2022-12-03T12:43:39.662Z,-6.04
2022-12-03T12:48:41.664Z,-6.12
2022-12-03T12:53:43.649Z,-6.13
2022-12-03T12:58:46.062Z,-6.02
2022-12-03T13:03:51.282Z,-6.02
2022-12-03T13:08:54.449Z,-6.02
2022-12-03T13:13:56.416Z,-6.01
2022-12-03T13:18:59.960Z,-5.97
2022-12-03T13:24:02.398Z,-5.94
2022-12-03T13:29:14.752Z,-5.86
2022-12-03T13:34:21.242Z,-6.00
2022-12-03T13:39:28.980Z,-5.78
2022-12-03T13:44:32.412Z,-5.76
2022-12-03T13:49:34.907Z,-5.61
2022-12-03T13:54:39.403Z,-5.64
2022-12-03T13:59:41.514Z,-5.66
2022-12-03T14:04:44.500Z,-5.61
2022-12-03T14:09:46.621Z,-5.59
2022-12-03T14:14:48.636Z,-5.60
2022-12-03T14:19:50.734Z,-5.54
2022-12-03T14:24:53.666Z,-5.49
2022-12-03T14:29:56.035Z,-5.45
2022-12-03T14:34:58.279Z,-5.34
2022-12-03T14:40:00.317Z,-5.33
2022-12-03T14:45:02.633Z,-5.33
2022-12-03T14:50:06.052Z,-5.38
2022-12-03T14:55:08.444Z,-5.27
2022-12-03T15:00:12.779Z,-5.27
2022-12-03T15:05:14.905Z,-5.28
2022-12-03T15:10:16.989Z,-5.29
2022-12-03T15:15:19.821Z,-5.27
2022-12-03T15:20:21.966Z,-5.25
2022-12-03T15:25:27.017Z,-5.21
2022-12-03T15:30:29.583Z,-5.20
2022-12-03T15:35:31.735Z,-5.19
2022-12-03T15:40:35.476Z,-5.09
2022-12-03T15:45:37.586Z,-5.14
2022-12-03T15:50:40.368Z,-5.17
2022-12-03T15:55:42.649Z,-5.19
2022-12-03T16:00:44.701Z,-5.24
2022-12-03T16:05:46.798Z,-5.12
2022-12-03T16:10:49.863Z,-5.14
2022-12-03T16:15:51.977Z,-5.11
2022-12-03T16:20:54.136Z,-5.16
2022-12-03T16:25:56.150Z,-5.11
2022-12-03T16:30:58.213Z,-5.05
2022-12-03T16:36:00.372Z,-5.08
2022-12-03T16:41:02.500Z,-5.07
2022-12-03T16:46:17.358Z,-5.15
2022-12-03T16:51:19.787Z,-5.31
2022-12-03T16:56:22.958Z,-5.62
2022-12-03T17:01:25.102Z,-5.65
2022-12-03T17:06:27.149Z,-5.80
2022-12-03T17:11:29.382Z,-5.70
2022-12-03T17:16:31.626Z,-5.82
2022-12-03T17:21:35.230Z,-5.91
2022-12-03T17:26:37.499Z,-5.94
2022-12-03T17:31:42.256Z,-5.89
2022-12-03T17:36:44.777Z,-6.00
2022-12-03T17:41:46.814Z,-6.00
2022-12-03T17:46:49.529Z,-5.97
2022-12-03T17:51:51.673Z,-5.99
2022-12-03T17:56:53.702Z,-6.05
2022-12-03T18:01:55.762Z,-6.03
2022-12-03T18:07:02.148Z,-6.20
2022-12-03T18:12:04.748Z,-6.17
2022-12-03T18:17:06.882Z,-6.17
2022-12-03T18:22:09.284Z,-6.20
2022-12-03T18:27:11.381Z,-6.16
2022-12-03T18:32:27.809Z,-6.16
2022-12-03T18:37:33.153Z,-6.16
2022-12-03T18:42:35.208Z,-6.12
2022-12-03T18:47:38.277Z,-6.08
2022-12-03T18:52:40.583Z,-6.15
2022-12-03T18:57:42.695Z,-6.30
2022-12-03T19:03:02.291Z,-6.19
2022-12-03T19:08:14.025Z,-6.30
2022-12-03T19:13:16.208Z,-6.23
2022-12-03T19:18:18.219Z,-6.27
2022-12-03T19:23:20.528Z,-6.30
2022-12-03T19:28:22.512Z,-6.28
2022-12-03T19:33:28.572Z,-6.26
2022-12-03T19:38:31.805Z,-6.26
2022-12-03T19:43:36.601Z,-6.29
2022-12-03T19:48:40.571Z,-6.22
2022-12-03T19:53:43.243Z,-6.22
2022-12-03T19:58:46.799Z,-6.23
2022-12-03T20:03:51.127Z,-6.24
2022-12-03T20:08:58.274Z,-6.09
2022-12-03T20:14:07.704Z,-6.08
2022-12-03T20:19:12.462Z,-6.19
2022-12-03T20:24:16.497Z,-6.11
2022-12-03T20:29:18.535Z,-6.21
2022-12-03T20:34:20.575Z,-6.10
2022-12-03T20:39:22.600Z,-6.01
2022-12-03T20:44:24.568Z,-6.09
2022-12-03T20:49:26.597Z,-6.04
2022-12-03T20:54:28.565Z,-6.04
2022-12-03T20:59:30.705Z,-5.91
2022-12-03T21:04:33.792Z,-6.06
2022-12-03T21:09:35.843Z,-6.02
2022-12-03T21:14:37.859Z,-5.97
2022-12-03T21:19:39.980Z,-5.95
2022-12-03T21:24:42.973Z,-6.05
2022-12-03T21:29:45.062Z,-6.00
2022-12-03T21:34:47.080Z,-5.94
2022-12-03T21:39:49.285Z,-6.02
2022-12-03T21:44:51.485Z,-6.05
2022-12-03T21:49:53.930Z,-6.01
2022-12-03T21:54:56.115Z,-6.03
2022-12-03T21:59:58.271Z,-6.02
2022-12-03T22:05:00.303Z,-6.03
2022-12-03T22:10:02.833Z,-6.02
2022-12-03T22:15:05.908Z,-6.10
2022-12-03T22:20:08.633Z,-5.97
2022-12-03T22:25:10.722Z,-5.87
2022-12-03T22:30:12.932Z,-5.87
2022-12-03T22:35:15.027Z,-5.84
2022-12-03T22:40:17.194Z,-5.92
2022-12-03T22:45:19.286Z,-5.94
2022-12-03T22:50:21.341Z,-5.98
2022-12-03T22:55:23.508Z,-5.95
2022-12-03T23:00:31.894Z,-6.28
2022-12-03T23:05:37.065Z,-6.19
2022-12-03T23:10:42.312Z,-6.16
2022-12-03T23:15:46.513Z,-6.22
2022-12-03T23:20:53.975Z,-6.26
2022-12-03T23:26:02.039Z,-6.34
2022-12-03T23:31:05.591Z,-6.39
2022-12-03T23:36:08.060Z,-6.38
2022-12-03T23:41:13.316Z,-6.35
2022-12-03T23:46:19.512Z,-6.39
2022-12-03T23:51:26.810Z,-6.42
2022-12-03T23:56:30.779Z,-6.52
